MMOX/OAX METAR and TAF weather

Enter ICAO airport designator
Station Type Date Time Source
MMOX METAR 2022/06/28 01:45 UTC NOAA

MMOX 280145Z 07007KT 7SM SCT120 SCT210 22/09 A3024 RMK 8/036


Station Type Date Time Source
MMOX Decoded METAR 2022/06/28 01:45 UTC NOAA

Oaxaca / Xoxocotlan, Mexico (MMOX) 16-58N 096-44W
Jun 27, 2022 - 09:45 PM EDT / 2022.06.28 0145 UTC
Wind: from the ENE (070 degrees) at 8 MPH (7 KT):0
Visibility: 7 mile(s):0
Sky conditions: partly cloudy
Temperature: 71 F (22 C)
Dew Point: 48 F (9 C)
Relative Humidity: 43%
Pressure (altimeter): 30.24 in. Hg (1024 hPa)
ob: MMOX 280145Z 07007KT 7SM SCT120 SCT210 22/09 A3024 RMK 8/036
cycle: 2

Station Type Date Time Source
MMOX TAF 2022/06/28 06:57 UTC NOAA

TAF MMOX 280357Z 2806/2906 06005KT P6SM SCT030 BKN120
FM281800 06010KT P6SM BKN030 PROB40 2821/2901 5SM TSRA BKN020CB
FM290300 06005KT P6SM SCT020 BKN080

Example: see airport list